createdAt,value
2023-05-12T00:00:30.454Z,1.42
2023-05-12T00:01:32.465Z,1.67
2023-05-12T00:02:34.734Z,1.13
2023-05-12T00:03:37.062Z,1.38
2023-05-12T00:04:40.605Z,1.40
2023-05-12T00:05:42.882Z,1.70
2023-05-12T00:06:44.972Z,1.10
2023-05-12T00:07:47.139Z,1.70
2023-05-12T00:08:49.172Z,1.50
2023-05-12T00:09:51.151Z,1.38
2023-05-12T00:10:53.381Z,1.98
2023-05-12T00:11:55.363Z,1.58
2023-05-12T00:12:57.485Z,1.50
2023-05-12T00:13:59.628Z,1.30
2023-05-12T00:15:01.825Z,1.38
2023-05-12T00:16:04.687Z,1.20
2023-05-12T00:17:06.957Z,1.50
2023-05-12T00:18:08.978Z,1.55
2023-05-12T00:19:11.079Z,1.60
2023-05-12T00:20:13.328Z,1.58
2023-05-12T00:21:15.543Z,1.38
2023-05-12T00:22:17.800Z,1.77
2023-05-12T00:23:19.808Z,1.60
2023-05-12T00:24:21.755Z,1.30
2023-05-12T00:25:23.825Z,1.50
2023-05-12T00:26:26.179Z,1.60
2023-05-12T00:27:29.691Z,1.90
2023-05-12T00:28:32.104Z,1.75
2023-05-12T00:29:34.761Z,1.95
2023-05-12T00:30:36.717Z,1.85
2023-05-12T00:31:39.337Z,1.33
2023-05-12T00:32:41.401Z,1.50
2023-05-12T00:33:43.542Z,1.92
2023-05-12T00:34:45.546Z,1.73
2023-05-12T00:35:47.661Z,1.75
2023-05-12T00:36:49.780Z,1.58
2023-05-12T00:37:51.928Z,1.70
2023-05-12T00:38:54.404Z,1.80
2023-05-12T00:39:56.645Z,1.60
2023-05-12T00:40:58.635Z,1.70
2023-05-12T00:42:01.225Z,1.50
2023-05-12T00:43:03.209Z,1.25
2023-05-12T00:44:05.647Z,1.40
2023-05-12T00:45:08.409Z,1.42
2023-05-12T00:46:10.653Z,1.58
2023-05-12T00:47:13.181Z,2.05
2023-05-12T00:48:15.718Z,1.60
2023-05-12T00:49:17.855Z,1.40
2023-05-12T00:50:20.958Z,1.58
2023-05-12T00:51:24.621Z,1.75
2023-05-12T00:52:27.931Z,1.65
2023-05-12T00:53:44.961Z,1.83
2023-05-12T00:54:51.357Z,1.50
2023-05-12T00:55:55.806Z,1.35
2023-05-12T00:56:58.183Z,1.70
2023-05-12T00:58:00.421Z,1.75
2023-05-12T00:59:02.594Z,1.55
2023-05-12T01:00:05.253Z,1.42
2023-05-12T01:01:09.825Z,1.63
2023-05-12T01:02:12.026Z,1.50
2023-05-12T01:03:14.352Z,1.73
2023-05-12T01:04:16.499Z,1.70
2023-05-12T01:05:18.672Z,1.50
2023-05-12T01:06:45.693Z,1.60
2023-05-12T01:07:49.329Z,1.20
2023-05-12T01:08:51.870Z,1.63
2023-05-12T01:09:57.613Z,1.20
2023-05-12T01:10:59.652Z,1.48
2023-05-12T01:12:02.416Z,1.20
2023-05-12T01:13:04.427Z,1.38
2023-05-12T01:14:06.631Z,1.50
2023-05-12T01:15:10.414Z,0.90
2023-05-12T01:17:48.065Z,1.50
2023-05-12T01:18:54.636Z,1.40
2023-05-12T01:20:02.439Z,1.48
2023-05-12T01:21:07.984Z,1.52
2023-05-12T01:22:12.560Z,1.30
2023-05-12T01:23:18.617Z,1.20
2023-05-12T01:24:22.348Z,1.17
2023-05-12T01:25:25.445Z,1.20
2023-05-12T01:26:30.096Z,1.20
2023-05-12T01:27:34.126Z,1.30
2023-05-12T01:29:39.147Z,1.25
2023-05-12T01:30:44.838Z,1.50
2023-05-12T01:31:48.016Z,1.35
2023-05-12T01:32:51.387Z,1.23
2023-05-12T01:33:53.571Z,1.42
2023-05-12T01:34:55.691Z,1.20
2023-05-12T01:35:57.579Z,1.23
2023-05-12T01:36:59.535Z,1.13
2023-05-12T01:38:01.615Z,1.50
2023-05-12T01:39:03.732Z,1.23
2023-05-12T01:40:06.342Z,1.23
2023-05-12T01:41:08.527Z,1.65
2023-05-12T01:42:10.648Z,1.42
2023-05-12T01:43:12.849Z,1.52
2023-05-12T01:44:14.889Z,1.63
2023-05-12T01:45:17.177Z,1.30
2023-05-12T01:46:19.068Z,1.70
2023-05-12T01:47:21.831Z,1.13
2023-05-12T01:48:23.946Z,1.48
2023-05-12T01:49:25.990Z,1.50
2023-05-12T01:50:28.300Z,1.30
2023-05-12T01:51:30.423Z,1.40
2023-05-12T01:52:33.046Z,1.30
2023-05-12T01:53:35.126Z,1.55
2023-05-12T01:54:37.068Z,1.73
2023-05-12T01:55:39.300Z,1.30
2023-05-12T01:56:41.361Z,1.45
2023-05-12T01:57:43.465Z,1.38
2023-05-12T01:58:45.448Z,2.38
2023-05-12T01:59:47.661Z,2.28
2023-05-12T02:00:49.618Z,1.17
2023-05-12T02:01:51.843Z,1.20
2023-05-12T02:02:53.906Z,1.20
2023-05-12T02:03:56.264Z,1.23
2023-05-12T02:04:58.370Z,1.40
2023-05-12T02:06:00.656Z,1.50
2023-05-12T02:07:02.546Z,1.50
2023-05-12T02:08:04.984Z,1.95
2023-05-12T02:09:06.914Z,1.40
2023-05-12T02:10:09.657Z,1.40
2023-05-12T02:11:11.827Z,1.30
2023-05-12T02:12:14.227Z,1.10
2023-05-12T02:13:16.165Z,1.30
2023-05-12T02:14:18.299Z,1.20
2023-05-12T02:15:20.456Z,1.52
2023-05-12T02:16:22.997Z,1.45
2023-05-12T02:17:25.261Z,1.00
2023-05-12T02:18:27.872Z,1.60
2023-05-12T02:19:29.794Z,1.35
2023-05-12T02:20:32.657Z,1.27
2023-05-12T02:21:34.733Z,1.38
2023-05-12T02:22:36.801Z,1.25
2023-05-12T02:23:38.790Z,1.88
2023-05-12T02:24:40.920Z,1.10
2023-05-12T02:25:42.950Z,1.05
2023-05-12T02:26:45.002Z,1.25
2023-05-12T02:27:47.165Z,1.13
2023-05-12T02:28:49.621Z,1.58
2023-05-12T02:29:51.634Z,0.95
2023-05-12T02:30:54.562Z,1.17
2023-05-12T02:31:56.521Z,1.17
2023-05-12T02:32:58.674Z,1.02
2023-05-12T02:34:01.471Z,1.17
2023-05-12T02:35:03.814Z,1.20
2023-05-12T02:36:06.130Z,1.23
2023-05-12T02:37:08.373Z,1.35
2023-05-12T02:38:11.116Z,1.30
2023-05-12T02:39:13.692Z,1.30
2023-05-12T02:40:16.481Z,1.10
2023-05-12T02:41:18.538Z,1.17
2023-05-12T02:42:20.721Z,1.15
2023-05-12T02:43:22.777Z,1.02
2023-05-12T02:44:24.841Z,1.27
2023-05-12T02:45:26.902Z,1.42
2023-05-12T02:46:28.964Z,1.42
2023-05-12T02:47:33.254Z,1.60
2023-05-12T02:48:35.419Z,1.90
2023-05-12T02:49:37.446Z,1.70
2023-05-12T02:50:39.441Z,1.55
2023-05-12T02:51:41.484Z,1.83
2023-05-12T02:52:43.485Z,1.20
2023-05-12T02:53:45.471Z,1.50
2023-05-12T02:54:47.394Z,1.30
2023-05-12T02:55:49.771Z,1.35
2023-05-12T02:56:51.747Z,1.48
2023-05-12T02:57:54.072Z,1.50
2023-05-12T02:58:56.112Z,1.33
2023-05-12T02:59:58.148Z,1.58
2023-05-12T03:01:09.801Z,1.88
2023-05-12T03:02:13.455Z,1.30
2023-05-12T03:03:15.658Z,1.33
2023-05-12T03:04:17.873Z,1.20
2023-05-12T03:05:20.019Z,1.45
2023-05-12T03:06:22.101Z,1.63
2023-05-12T03:07:24.121Z,1.30
2023-05-12T03:08:26.092Z,1.67
2023-05-12T03:09:28.098Z,1.52
2023-05-12T03:10:30.273Z,1.98
2023-05-12T03:11:32.451Z,1.60
2023-05-12T03:12:34.498Z,1.63
2023-05-12T03:13:36.441Z,1.77
2023-05-12T03:14:38.560Z,1.70
2023-05-12T03:15:41.415Z,1.42
2023-05-12T03:16:43.474Z,1.65
2023-05-12T03:17:45.670Z,1.90
2023-05-12T03:18:47.866Z,1.63
2023-05-12T03:19:49.744Z,1.67
2023-05-12T03:20:51.966Z,1.50
2023-05-12T03:21:54.598Z,2.15
2023-05-12T03:22:56.794Z,1.70
2023-05-12T03:23:58.719Z,1.35
2023-05-12T03:25:00.756Z,1.48
2023-05-12T03:26:02.792Z,1.45
2023-05-12T03:27:05.348Z,1.30
2023-05-12T03:28:07.270Z,1.73
2023-05-12T03:29:09.464Z,1.63
2023-05-12T03:30:12.113Z,1.48
2023-05-12T03:31:14.196Z,1.40
2023-05-12T03:32:16.167Z,1.77
2023-05-12T03:33:18.362Z,1.55
2023-05-12T03:34:20.269Z,1.73
2023-05-12T03:35:22.314Z,1.60
2023-05-12T03:36:24.220Z,1.80
2023-05-12T03:37:26.348Z,1.40
2023-05-12T03:38:28.302Z,1.70
2023-05-12T03:39:30.479Z,1.60
2023-05-12T03:40:32.538Z,1.75
2023-05-12T03:41:34.790Z,1.50
2023-05-12T03:42:36.722Z,1.83
2023-05-12T03:43:39.140Z,1.58
2023-05-12T03:44:41.381Z,1.50
2023-05-12T03:45:43.490Z,1.30
2023-05-12T03:46:45.924Z,1.77
2023-05-12T03:47:48.130Z,1.30
2023-05-12T03:48:50.182Z,1.15
2023-05-12T03:49:52.555Z,1.52
2023-05-12T03:50:54.521Z,1.50
2023-05-12T03:51:56.593Z,1.67
2023-05-12T03:52:58.540Z,1.77
2023-05-12T03:54:00.556Z,1.40
2023-05-12T03:55:02.461Z,1.35
2023-05-12T03:56:06.814Z,1.90
2023-05-12T03:57:08.785Z,1.33
2023-05-12T03:58:10.925Z,1.33
2023-05-12T03:59:12.915Z,1.75
2023-05-12T04:00:15.361Z,1.35
2023-05-12T04:01:17.551Z,1.50
2023-05-12T04:02:19.592Z,1.25
2023-05-12T04:03:21.679Z,1.35
2023-05-12T04:04:23.696Z,1.33
2023-05-12T04:05:26.054Z,1.80
2023-05-12T04:06:28.116Z,2.15
2023-05-12T04:07:30.110Z,1.30
2023-05-12T04:08:32.336Z,1.40
2023-05-12T04:09:34.291Z,1.33
2023-05-12T04:10:42.499Z,1.80
2023-05-12T04:11:44.477Z,1.85
2023-05-12T04:12:46.693Z,1.30
2023-05-12T04:13:49.050Z,1.30
2023-05-12T04:14:51.254Z,1.92
2023-05-12T04:15:57.170Z,1.48
2023-05-12T04:16:59.346Z,1.60
2023-05-12T04:18:02.691Z,1.35
2023-05-12T04:19:04.825Z,1.40
2023-05-12T04:20:08.256Z,1.30
2023-05-12T04:21:10.398Z,1.42
2023-05-12T04:22:12.291Z,1.55
2023-05-12T04:23:15.410Z,1.80
2023-05-12T04:24:17.494Z,1.35
2023-05-12T04:25:19.612Z,1.73
2023-05-12T04:26:22.376Z,1.70
2023-05-12T04:27:24.624Z,1.60
2023-05-12T04:28:26.864Z,1.50
2023-05-12T04:29:28.856Z,1.50
2023-05-12T04:30:31.070Z,1.60
2023-05-12T04:31:33.297Z,1.35
2023-05-12T04:32:35.666Z,1.40
2023-05-12T04:33:37.893Z,1.45
2023-05-12T04:34:39.920Z,1.17
2023-05-12T04:35:42.140Z,1.38
2023-05-12T04:36:44.260Z,1.48
2023-05-12T04:37:46.592Z,1.13
2023-05-12T04:38:48.902Z,1.20
2023-05-12T04:39:51.246Z,1.00
2023-05-12T04:40:58.681Z,1.20
2023-05-12T04:42:02.375Z,1.42
2023-05-12T04:43:05.002Z,1.77
2023-05-12T04:44:07.518Z,1.38
2023-05-12T04:45:09.989Z,1.55
2023-05-12T04:46:12.316Z,1.45
2023-05-12T04:47:14.351Z,1.30
2023-05-12T04:48:16.618Z,1.58
2023-05-12T04:49:18.735Z,1.45
2023-05-12T04:50:21.004Z,1.30
2023-05-12T04:51:23.016Z,1.30
2023-05-12T04:52:25.259Z,1.23
2023-05-12T04:53:28.093Z,1.40
2023-05-12T04:54:30.142Z,1.20
2023-05-12T04:55:32.166Z,1.38
2023-05-12T04:56:34.112Z,1.48
2023-05-12T04:57:36.005Z,1.58
2023-05-12T04:58:38.671Z,1.10
2023-05-12T04:59:41.471Z,1.42
2023-05-12T05:00:44.117Z,1.40
2023-05-12T05:01:46.356Z,1.00
2023-05-12T05:02:48.734Z,1.30
2023-05-12T05:03:50.980Z,1.92
2023-05-12T05:04:53.084Z,1.30
2023-05-12T05:05:55.197Z,1.50
2023-05-12T05:06:57.412Z,1.30
2023-05-12T05:07:59.431Z,1.65
2023-05-12T05:09:01.440Z,1.33
2023-05-12T05:10:03.911Z,1.40
2023-05-12T05:11:07.325Z,1.33
2023-05-12T05:12:09.289Z,1.30
2023-05-12T05:13:11.243Z,1.35
2023-05-12T05:14:13.191Z,1.30
2023-05-12T05:15:15.223Z,1.50
2023-05-12T05:16:17.534Z,1.23
2023-05-12T05:17:19.563Z,1.50
2023-05-12T05:18:24.013Z,1.55
2023-05-12T05:19:39.013Z,1.30
2023-05-12T05:21:53.799Z,1.13
2023-05-12T05:22:55.766Z,1.13
2023-05-12T05:23:57.808Z,1.30
2023-05-12T05:24:59.762Z,1.13
2023-05-12T05:26:01.686Z,1.23
2023-05-12T05:27:04.226Z,1.00
2023-05-12T05:28:06.797Z,1.23
2023-05-12T05:29:08.946Z,1.10
2023-05-12T05:30:11.015Z,0.82
2023-05-12T05:31:18.925Z,1.63
2023-05-12T05:32:21.683Z,1.33
2023-05-12T05:33:24.046Z,1.02
2023-05-12T05:34:26.388Z,1.20
2023-05-12T05:35:28.512Z,1.38
2023-05-12T05:36:31.540Z,1.33
2023-05-12T05:37:33.904Z,1.42
2023-05-12T05:38:36.353Z,2.10
2023-05-12T05:39:38.482Z,1.42
2023-05-12T05:40:52.199Z,1.23
2023-05-12T05:41:56.437Z,0.88
2023-05-12T05:42:58.465Z,1.30
2023-05-12T05:44:00.392Z,1.92
2023-05-12T05:45:02.521Z,1.20
2023-05-12T05:46:05.630Z,0.95
2023-05-12T05:47:07.891Z,0.85
2023-05-12T05:48:10.047Z,1.17
2023-05-12T05:49:12.495Z,0.82
2023-05-12T05:50:14.524Z,1.40
2023-05-12T05:51:16.688Z,1.27
2023-05-12T05:52:19.046Z,1.00
2023-05-12T05:53:21.679Z,0.90
2023-05-12T05:54:25.296Z,1.05
2023-05-12T05:55:27.383Z,0.93
2023-05-12T05:56:30.652Z,1.10
2023-05-12T05:57:32.723Z,0.80
2023-05-12T05:58:34.833Z,1.10
2023-05-12T05:59:37.086Z,1.23
2023-05-12T06:00:39.098Z,1.00
2023-05-12T06:01:41.285Z,0.70
2023-05-12T06:02:43.869Z,1.02
2023-05-12T06:03:45.939Z,0.93
2023-05-12T06:04:48.146Z,1.00
2023-05-12T06:05:50.320Z,1.17
2023-05-12T06:06:52.375Z,1.55
2023-05-12T06:07:54.499Z,1.52
2023-05-12T06:08:56.836Z,2.03
2023-05-12T06:09:58.772Z,1.92
2023-05-12T06:11:00.777Z,1.77
2023-05-12T06:12:02.853Z,1.60
2023-05-12T06:13:04.938Z,1.98
2023-05-12T06:14:07.087Z,1.60
2023-05-12T06:15:09.616Z,1.70
2023-05-12T06:16:11.687Z,1.30
2023-05-12T06:17:14.149Z,1.98
2023-05-12T06:18:16.666Z,1.30
2023-05-12T06:19:18.840Z,1.92
2023-05-12T06:20:20.861Z,1.55
2023-05-12T06:21:22.985Z,1.58
2023-05-12T06:22:25.361Z,1.50
2023-05-12T06:23:27.620Z,1.92
2023-05-12T06:24:29.770Z,1.33
2023-05-12T06:25:33.442Z,1.60
2023-05-12T06:26:36.932Z,1.52
2023-05-12T06:27:38.847Z,1.52
2023-05-12T06:28:40.925Z,1.23
2023-05-12T06:29:43.062Z,1.15
2023-05-12T06:30:45.606Z,0.80
2023-05-12T06:31:47.530Z,0.50
2023-05-12T06:32:49.558Z,1.40
2023-05-12T06:33:51.560Z,0.95
2023-05-12T06:34:53.504Z,0.80
2023-05-12T06:35:55.652Z,0.82
2023-05-12T06:36:57.891Z,0.80
2023-05-12T06:37:59.952Z,1.38
2023-05-12T06:39:02.166Z,0.93
2023-05-12T06:40:04.536Z,1.10
2023-05-12T06:41:07.011Z,0.85
2023-05-12T06:42:09.202Z,0.80
2023-05-12T06:43:11.148Z,0.50
2023-05-12T06:44:13.580Z,0.70
2023-05-12T06:45:16.031Z,0.70
2023-05-12T06:46:19.004Z,1.10
2023-05-12T06:47:21.394Z,0.60
2023-05-12T06:48:24.207Z,0.90
2023-05-12T06:49:26.355Z,0.90
2023-05-12T06:50:28.367Z,0.70
2023-05-12T06:51:30.886Z,0.63
2023-05-12T06:52:32.863Z,0.70
2023-05-12T06:53:37.746Z,1.10
2023-05-12T06:54:39.692Z,0.77
2023-05-12T06:55:43.427Z,0.70
2023-05-12T06:56:45.525Z,0.90
2023-05-12T06:57:48.109Z,0.80
2023-05-12T06:58:50.483Z,0.60
2023-05-12T06:59:52.678Z,0.60
2023-05-12T07:00:54.657Z,0.90
2023-05-12T07:01:56.758Z,0.63
2023-05-12T07:02:58.820Z,0.50
2023-05-12T07:04:01.071Z,0.80
2023-05-12T07:05:03.187Z,0.80
2023-05-12T07:06:06.846Z,0.95
2023-05-12T07:07:08.896Z,1.05
2023-05-12T07:08:10.887Z,0.98
2023-05-12T07:09:12.923Z,0.68
2023-05-12T07:10:15.094Z,0.68
2023-05-12T07:11:22.994Z,0.80
2023-05-12T07:12:25.210Z,0.93
2023-05-12T07:13:27.302Z,0.93
2023-05-12T07:14:29.276Z,0.80
2023-05-12T07:15:32.767Z,1.00
2023-05-12T07:17:37.510Z,0.60
2023-05-12T07:18:39.717Z,0.60
2023-05-12T07:19:43.694Z,0.60
2023-05-12T07:20:46.766Z,0.80
2023-05-12T07:21:48.740Z,1.05
2023-05-12T07:22:52.568Z,0.68
2023-05-12T07:23:54.484Z,0.70
2023-05-12T07:24:56.624Z,0.77
2023-05-12T07:25:58.782Z,0.50
2023-05-12T07:27:00.911Z,0.68
2023-05-12T07:28:02.796Z,0.80
2023-05-12T07:29:05.560Z,0.80
2023-05-12T07:30:08.466Z,0.75
2023-05-12T07:31:10.777Z,0.63
2023-05-12T07:32:12.750Z,1.10
2023-05-12T07:33:15.383Z,0.98
2023-05-12T07:34:17.315Z,1.40
2023-05-12T07:35:19.544Z,0.90
2023-05-12T07:36:22.170Z,0.85
2023-05-12T07:37:24.339Z,0.60
2023-05-12T07:38:26.300Z,0.55
2023-05-12T07:39:31.114Z,0.75
2023-05-12T07:40:32.989Z,0.88
2023-05-12T07:41:35.096Z,0.73
2023-05-12T07:42:37.435Z,0.80
2023-05-12T07:43:39.518Z,0.73
2023-05-12T07:44:41.766Z,0.90
2023-05-12T07:45:44.700Z,0.80
2023-05-12T07:46:46.735Z,0.60
2023-05-12T07:47:50.727Z,0.60
2023-05-12T07:48:52.908Z,0.60
2023-05-12T07:49:55.093Z,0.80
2023-05-12T07:50:57.835Z,0.90
2023-05-12T07:51:59.881Z,0.77
2023-05-12T07:53:01.793Z,0.50
2023-05-12T07:54:05.077Z,0.57
2023-05-12T07:55:07.423Z,0.65
2023-05-12T07:56:10.133Z,0.50
2023-05-12T07:57:12.164Z,0.73
2023-05-12T07:58:14.150Z,0.85
2023-05-12T07:59:16.807Z,0.70
2023-05-12T08:00:19.394Z,0.43
2023-05-12T08:01:21.519Z,0.47
2023-05-12T08:02:23.600Z,0.93
2023-05-12T08:03:25.762Z,0.50
2023-05-12T08:04:28.013Z,0.40
2023-05-12T08:05:30.035Z,0.55
2023-05-12T08:06:32.206Z,0.50
2023-05-12T08:07:34.416Z,0.73
2023-05-12T08:08:36.907Z,0.50
2023-05-12T08:09:38.794Z,0.88
2023-05-12T08:10:41.188Z,0.40
2023-05-12T08:11:46.540Z,0.60
2023-05-12T08:12:49.665Z,0.30
2023-05-12T08:13:51.771Z,0.57
2023-05-12T08:14:53.820Z,0.70
2023-05-12T08:15:55.706Z,0.40
2023-05-12T08:16:57.878Z,0.70
2023-05-12T08:17:59.962Z,0.52
2023-05-12T08:19:02.174Z,0.40
2023-05-12T08:20:05.428Z,0.47
2023-05-12T08:21:10.947Z,0.60
2023-05-12T08:22:12.991Z,0.38
2023-05-12T08:23:17.292Z,0.60
2023-05-12T08:24:19.278Z,0.40
2023-05-12T08:25:21.663Z,0.40
2023-05-12T08:26:25.069Z,0.57
2023-05-12T08:27:27.134Z,0.40
2023-05-12T08:28:29.595Z,0.60
2023-05-12T08:29:31.788Z,0.38
2023-05-12T08:30:33.865Z,0.40
2023-05-12T08:31:38.130Z,0.45
2023-05-12T08:32:40.443Z,0.63
2023-05-12T08:33:43.706Z,0.50
2023-05-12T08:34:46.064Z,0.50
2023-05-12T08:35:48.156Z,0.45
2023-05-12T08:36:50.408Z,0.50
2023-05-12T08:37:53.266Z,0.40
2023-05-12T08:38:56.466Z,0.50
2023-05-12T08:39:58.634Z,0.30
2023-05-12T08:41:13.020Z,0.40
2023-05-12T08:42:23.957Z,0.60
2023-05-12T08:43:36.098Z,0.40
2023-05-12T08:44:38.733Z,0.40
2023-05-12T08:45:41.624Z,0.30
2023-05-12T08:46:43.973Z,0.50
2023-05-12T08:47:46.584Z,0.40
2023-05-12T08:48:51.040Z,0.60
2023-05-12T08:50:01.055Z,0.70
2023-05-12T08:51:13.257Z,0.45
2023-05-12T08:52:21.852Z,0.85
2023-05-12T08:53:25.999Z,0.60
2023-05-12T08:55:34.148Z,1.23
2023-05-12T08:57:45.908Z,0.73
2023-05-12T08:58:48.545Z,1.08
2023-05-12T08:59:56.203Z,0.57
2023-05-12T09:01:01.091Z,1.00
2023-05-12T09:02:08.280Z,0.73
2023-05-12T09:03:13.556Z,0.47
2023-05-12T09:04:15.752Z,0.63
2023-05-12T09:05:18.656Z,0.40
2023-05-12T09:06:21.025Z,0.52
2023-05-12T09:07:24.756Z,0.50
2023-05-12T09:08:29.308Z,0.68
2023-05-12T09:09:33.945Z,0.40
2023-05-12T09:10:36.088Z,0.50
2023-05-12T09:11:38.993Z,0.43
2023-05-12T09:12:43.007Z,0.55
2023-05-12T09:14:06.737Z,0.57
2023-05-12T09:15:15.175Z,0.60
2023-05-12T09:16:22.430Z,0.70
2023-05-12T09:17:24.419Z,0.63
2023-05-12T09:18:26.648Z,0.70
2023-05-12T09:19:29.623Z,0.40
2023-05-12T09:20:32.344Z,0.40
2023-05-12T09:21:35.014Z,0.60
2023-05-12T09:22:37.347Z,0.55
2023-05-12T09:23:39.258Z,0.57
2023-05-12T09:24:43.561Z,0.50
2023-05-12T09:25:47.273Z,0.30
2023-05-12T09:27:56.910Z,0.60
2023-05-12T09:29:07.354Z,0.80
2023-05-12T09:30:09.651Z,0.52
2023-05-12T09:31:16.479Z,0.70
2023-05-12T09:32:18.517Z,0.60
2023-05-12T09:33:23.115Z,0.70
2023-05-12T09:34:38.919Z,0.80
2023-05-12T09:36:56.839Z,0.70
2023-05-12T09:38:06.531Z,0.30
2023-05-12T09:39:10.225Z,1.10
2023-05-12T09:40:13.936Z,0.40
2023-05-12T09:41:24.165Z,0.40
2023-05-12T09:42:29.385Z,0.50
2023-05-12T09:43:31.601Z,0.43
2023-05-12T09:44:33.847Z,0.47
2023-05-12T09:45:39.265Z,0.40
2023-05-12T09:46:41.684Z,0.43
2023-05-12T09:47:44.695Z,0.70
2023-05-12T09:48:48.509Z,0.60
2023-05-12T09:49:52.670Z,0.47
2023-05-12T09:50:54.750Z,0.50
2023-05-12T09:51:57.417Z,0.80
2023-05-12T09:53:02.082Z,0.50
2023-05-12T09:54:06.411Z,0.30
2023-05-12T09:55:11.924Z,0.40
2023-05-12T09:56:15.696Z,0.60
2023-05-12T09:57:20.397Z,0.70
2023-05-12T09:58:24.947Z,0.80
2023-05-12T09:59:31.531Z,0.40
2023-05-12T10:00:51.928Z,0.52
2023-05-12T10:02:07.545Z,0.68
2023-05-12T10:03:16.146Z,0.45
2023-05-12T10:04:20.824Z,1.27
2023-05-12T10:06:34.021Z,0.20
2023-05-12T10:07:36.966Z,0.40
2023-05-12T10:08:45.794Z,0.30
2023-05-12T10:09:49.602Z,0.40
2023-05-12T10:10:52.858Z,0.68
2023-05-12T10:11:56.712Z,0.43
2023-05-12T10:13:00.022Z,0.50
2023-05-12T10:14:02.406Z,0.70
2023-05-12T10:15:05.073Z,0.55
2023-05-12T10:16:10.081Z,0.40
2023-05-12T10:17:12.750Z,0.60
2023-05-12T10:18:16.720Z,0.50
2023-05-12T10:20:21.701Z,0.50
2023-05-12T10:21:27.145Z,0.40
2023-05-12T10:22:31.381Z,0.40
2023-05-12T10:23:37.761Z,0.55
2023-05-12T10:24:41.509Z,0.80
2023-05-12T10:25:44.680Z,0.65
2023-05-12T10:26:46.853Z,0.45
2023-05-12T10:27:49.166Z,0.80
2023-05-12T10:28:52.379Z,0.50
2023-05-12T10:29:55.543Z,0.47
2023-05-12T10:30:59.532Z,0.50
2023-05-12T10:32:01.754Z,0.65
2023-05-12T10:33:03.939Z,0.65
2023-05-12T10:34:06.954Z,0.50
2023-05-12T10:35:11.148Z,0.52
2023-05-12T10:36:19.931Z,0.50
2023-05-12T10:37:24.171Z,0.95
2023-05-12T10:38:26.418Z,0.30
2023-05-12T10:39:30.082Z,0.63
2023-05-12T10:40:32.786Z,0.57
2023-05-12T10:41:35.553Z,0.50
2023-05-12T10:42:43.206Z,0.88
2023-05-12T10:43:51.254Z,0.32
2023-05-12T10:44:54.761Z,0.68
2023-05-12T10:46:10.382Z,0.77
2023-05-12T10:47:16.863Z,0.70
2023-05-12T10:48:18.733Z,0.80
2023-05-12T10:49:32.411Z,0.57
2023-05-12T10:50:34.746Z,1.05
2023-05-12T10:51:45.731Z,0.60
2023-05-12T10:52:58.049Z,0.65
2023-05-12T10:54:08.285Z,0.45
2023-05-12T10:56:23.545Z,0.60
2023-05-12T10:57:26.675Z,0.57
2023-05-12T10:58:29.166Z,0.40
2023-05-12T10:59:32.229Z,0.60
2023-05-12T11:00:45.207Z,0.35
2023-05-12T11:01:58.906Z,0.73
2023-05-12T11:03:08.022Z,0.57
2023-05-12T11:04:13.399Z,0.55
2023-05-12T11:05:16.360Z,0.82
2023-05-12T11:06:19.921Z,0.50
2023-05-12T11:07:30.895Z,0.45
2023-05-12T11:08:37.921Z,0.60
2023-05-12T11:09:57.879Z,1.08
2023-05-12T11:11:03.240Z,0.45
2023-05-12T11:12:09.559Z,0.55
2023-05-12T11:13:11.690Z,0.40
2023-05-12T11:14:14.319Z,0.80
2023-05-12T11:15:18.096Z,0.70
2023-05-12T11:16:21.317Z,0.55
2023-05-12T11:17:23.477Z,0.25
2023-05-12T11:18:25.568Z,0.70
2023-05-12T11:19:28.324Z,0.60
2023-05-12T11:20:31.126Z,0.80
2023-05-12T11:21:33.851Z,0.85
2023-05-12T11:22:35.816Z,0.60
2023-05-12T11:23:37.923Z,0.50
2023-05-12T11:24:41.729Z,0.40
2023-05-12T11:25:47.471Z,0.20
2023-05-12T11:26:53.060Z,0.43
2023-05-12T11:27:55.191Z,0.40
2023-05-12T11:28:58.636Z,0.30
2023-05-12T11:30:03.077Z,0.50
2023-05-12T11:31:07.522Z,0.70
2023-05-12T11:32:11.488Z,0.95
2023-05-12T11:33:14.068Z,1.38
2023-05-12T11:34:16.951Z,1.88
2023-05-12T11:35:20.022Z,1.40
2023-05-12T11:36:22.563Z,0.85
2023-05-12T11:37:24.505Z,0.90
2023-05-12T11:38:28.542Z,0.40
2023-05-12T11:39:34.133Z,0.63
2023-05-12T11:40:41.241Z,0.50
2023-05-12T11:41:43.262Z,0.30
2023-05-12T11:42:48.951Z,0.50
2023-05-12T11:43:50.947Z,0.70
2023-05-12T11:44:53.307Z,0.40
2023-05-12T11:45:55.904Z,0.65
2023-05-12T11:47:03.917Z,0.50
2023-05-12T11:48:11.743Z,0.55
2023-05-12T11:49:14.082Z,1.40
2023-05-12T11:50:25.998Z,0.98
2023-05-12T11:51:28.115Z,0.75
2023-05-12T11:52:30.080Z,0.70
2023-05-12T11:53:33.189Z,0.50
2023-05-12T11:54:35.272Z,0.30
2023-05-12T11:55:37.419Z,0.60
2023-05-12T11:56:39.484Z,1.00
2023-05-12T11:57:41.743Z,0.90
2023-05-12T11:58:56.315Z,1.30
2023-05-12T12:00:04.237Z,0.80
2023-05-12T12:01:12.012Z,0.50
2023-05-12T12:02:21.843Z,0.38
2023-05-12T12:03:25.050Z,0.43
2023-05-12T12:04:43.148Z,0.40
2023-05-12T12:05:57.416Z,0.35
2023-05-12T12:06:59.539Z,0.28
2023-05-12T12:08:09.453Z,0.38
2023-05-12T12:09:12.532Z,0.22
2023-05-12T12:10:16.765Z,0.20
2023-05-12T12:11:23.218Z,0.73
2023-05-12T12:12:25.372Z,0.30
2023-05-12T12:13:27.537Z,0.40
2023-05-12T12:14:31.912Z,0.30
2023-05-12T12:15:34.155Z,0.43
2023-05-12T12:16:36.068Z,0.50
2023-05-12T12:17:40.244Z,0.52
2023-05-12T12:18:42.583Z,0.63
2023-05-12T12:19:44.737Z,0.65
2023-05-12T12:20:49.737Z,1.20
2023-05-12T12:21:52.052Z,0.32
2023-05-12T12:22:54.807Z,0.40
2023-05-12T12:23:57.009Z,0.50
2023-05-12T12:24:58.975Z,0.40
2023-05-12T12:26:00.972Z,0.25
2023-05-12T12:27:02.844Z,0.30
2023-05-12T12:28:05.177Z,0.60
2023-05-12T12:29:07.444Z,0.68
2023-05-12T12:30:10.339Z,0.52
2023-05-12T12:31:12.636Z,0.30
2023-05-12T12:32:14.941Z,0.60
2023-05-12T12:33:20.166Z,0.70
2023-05-12T12:34:22.712Z,0.60
2023-05-12T12:35:24.722Z,0.73
2023-05-12T12:36:27.108Z,0.63
2023-05-12T12:37:28.996Z,0.50
2023-05-12T12:38:31.267Z,0.30
2023-05-12T12:39:33.127Z,0.35
2023-05-12T12:40:35.308Z,0.43
2023-05-12T12:41:37.479Z,0.50
2023-05-12T12:42:41.415Z,0.40
2023-05-12T12:44:47.648Z,0.30
2023-05-12T12:45:49.774Z,0.30
2023-05-12T12:46:51.816Z,0.60
2023-05-12T12:47:55.073Z,0.50
2023-05-12T12:48:58.327Z,0.80
2023-05-12T12:50:00.363Z,0.43
2023-05-12T12:51:02.413Z,0.77
2023-05-12T12:52:04.854Z,0.32
2023-05-12T12:53:07.088Z,0.40
2023-05-12T12:54:09.093Z,0.32
2023-05-12T12:55:11.080Z,0.28
2023-05-12T12:56:13.157Z,0.47
2023-05-12T12:57:15.221Z,0.45
2023-05-12T12:58:17.380Z,0.30
2023-05-12T12:59:19.346Z,0.30
2023-05-12T13:00:23.899Z,0.40
2023-05-12T13:01:26.080Z,0.73
2023-05-12T13:02:28.384Z,0.50
2023-05-12T13:03:30.804Z,0.22
2023-05-12T13:04:32.810Z,1.05
2023-05-12T13:05:34.795Z,0.60
2023-05-12T13:06:36.896Z,0.77
2023-05-12T13:07:38.957Z,0.60
2023-05-12T13:08:42.540Z,0.98
2023-05-12T13:09:44.504Z,0.75
2023-05-12T13:10:46.656Z,0.60
2023-05-12T13:11:48.986Z,0.50
2023-05-12T13:12:51.101Z,0.70
2023-05-12T13:13:53.081Z,0.70
2023-05-12T13:14:55.065Z,1.23
2023-05-12T13:15:56.979Z,1.20
2023-05-12T13:16:59.332Z,0.82
2023-05-12T13:18:01.576Z,1.02
2023-05-12T13:19:04.111Z,0.50
2023-05-12T13:20:08.844Z,0.60
2023-05-12T13:21:11.139Z,0.50
2023-05-12T13:22:13.158Z,0.90
2023-05-12T13:23:15.167Z,0.77
2023-05-12T13:24:17.065Z,0.60
2023-05-12T13:25:19.213Z,1.00
2023-05-12T13:26:21.670Z,0.70
2023-05-12T13:27:23.650Z,1.00
2023-05-12T13:28:25.808Z,0.60
2023-05-12T13:29:27.828Z,0.70
2023-05-12T13:30:29.770Z,0.60
2023-05-12T13:31:31.818Z,0.57
2023-05-12T13:32:35.068Z,0.65
2023-05-12T13:33:37.232Z,0.60
2023-05-12T13:34:39.466Z,0.85
2023-05-12T13:35:41.473Z,0.70
2023-05-12T13:36:43.330Z,0.60
2023-05-12T13:37:45.446Z,0.70
2023-05-12T13:38:47.333Z,0.63
2023-05-12T13:39:49.500Z,0.40
2023-05-12T13:40:51.390Z,0.40
2023-05-12T13:41:53.384Z,0.40
2023-05-12T13:42:55.461Z,0.40
2023-05-12T13:43:57.578Z,0.50
2023-05-12T13:44:59.542Z,0.40
2023-05-12T13:46:01.608Z,0.50
2023-05-12T13:47:03.718Z,0.60
2023-05-12T13:48:05.938Z,0.32
2023-05-12T13:49:08.158Z,0.35
2023-05-12T13:50:10.366Z,0.73
2023-05-12T13:51:12.374Z,0.63
2023-05-12T13:52:15.053Z,0.30
2023-05-12T13:53:16.961Z,0.60
2023-05-12T13:54:19.057Z,0.50
2023-05-12T13:55:21.842Z,0.38
2023-05-12T13:56:24.476Z,0.43
2023-05-12T13:57:26.551Z,0.32
2023-05-12T13:58:28.663Z,0.50
2023-05-12T13:59:31.423Z,0.40
2023-05-12T14:00:33.477Z,0.20
2023-05-12T14:01:35.954Z,0.40
2023-05-12T14:02:37.977Z,0.68
2023-05-12T14:03:42.332Z,0.55
2023-05-12T14:04:44.656Z,0.80
2023-05-12T14:05:47.037Z,0.52
2023-05-12T14:06:49.946Z,0.73
2023-05-12T14:07:51.960Z,0.65
2023-05-12T14:08:53.928Z,0.52
2023-05-12T14:09:55.951Z,0.65
2023-05-12T14:10:58.023Z,0.60
2023-05-12T14:12:00.164Z,0.57
2023-05-12T14:13:02.147Z,0.50
2023-05-12T14:14:06.054Z,0.60
2023-05-12T14:15:21.832Z,0.30